Time;durP1;ratioP1;P1;durP2;ratioP2;P2;SDS_P1;SDS_P2;PMS_P1;PMS_P2;Temp;Humidity;BMP_temperature;BMP_pressure;BME280_temperature;BME280_humidity;BME280_pressure;Samples;Min_cycle;Max_cycle;Signal;HPM_P1;HPM_P2
2023/12/04 00:00:58;;;;;;;10.10;6.37;;;;;;;;;;4978530;28;21029;-60
2023/12/04 00:03:26;;;;;;;11.60;7.80;;;;;;;;;;4978870;28;20445;-60
2023/12/04 00:06:18;;;;;;;;;;;;;;;;;;;;;
2023/12/04 00:09:05;;;;;;;10.53;6.97;;;;;;;;;;4976010;28;20449;-60
2023/12/04 00:11:34;;;;;;;9.13;6.93;;;;;;;;;;4978549;28;20497;-60
2023/12/04 00:14:04;;;;;;;9.50;7.13;;;;;;;;;;4978636;28;20548;-60
2023/12/04 00:16:34;;;;;;;11.27;6.73;;;;;;;;;;4978482;28;20441;-60
2023/12/04 00:19:02;;;;;;;13.77;8.33;;;;;;;;;;4978571;28;20477;-60
2023/12/04 00:21:31;;;;;;;10.33;6.93;;;;;;;;;;4977995;28;20464;-60
2023/12/04 00:23:59;;;;;;;10.67;6.83;;;;;;;;;;4978724;28;20444;-60
2023/12/04 00:26:28;;;;;;;10.00;6.80;;;;;;;;;;4978326;28;20468;-60
2023/12/04 00:28:58;;;;;;;9.93;5.97;;;;;;;;;;4978562;28;20472;-60
2023/12/04 00:31:27;;;;;;;9.00;6.90;;;;;;;;;;4978395;28;20552;-61
2023/12/04 00:33:56;;;;;;;6.97;6.13;;;;;;;;;;4978095;28;20496;-60
2023/12/04 00:36:25;;;;;;;14.90;8.60;;;;;;;;;;4978266;28;20477;-60
2023/12/04 00:38:54;;;;;;;9.33;6.77;;;;;;;;;;4978447;28;20448;-61
2023/12/04 00:41:22;;;;;;;9.47;6.07;;;;;;;;;;4990031;28;20471;-61
2023/12/04 00:43:50;;;;;;;10.00;6.97;;;;;;;;;;4984694;28;20472;-60
2023/12/04 00:46:18;;;;;;;11.00;7.03;;;;;;;;;;4984758;28;20440;-61
2023/12/04 00:48:48;;;;;;;8.97;5.97;;;;;;;;;;4985054;28;20528;-60
2023/12/04 00:51:17;;;;;;;10.93;5.87;;;;;;;;;;4984503;28;20461;-61
2023/12/04 00:53:45;;;;;;;7.70;5.80;;;;;;;;;;4984670;28;20523;-60
2023/12/04 00:56:13;;;;;;;9.17;6.33;;;;;;;;;;4984491;28;20465;-60
2023/12/04 00:58:42;;;;;;;11.47;6.50;;;;;;;;;;4985812;28;20445;-60
2023/12/04 01:01:10;;;;;;;10.47;6.70;;;;;;;;;;4984404;28;20844;-60
2023/12/04 01:03:39;;;;;;;10.77;6.63;;;;;;;;;;4984571;28;20448;-60
2023/12/04 01:06:09;;;;;;;9.77;6.37;;;;;;;;;;4984385;28;20441;-60
2023/12/04 01:08:37;;;;;;;9.33;6.93;;;;;;;;;;4984714;28;20451;-60
2023/12/04 01:11:06;;;;;;;10.47;6.77;;;;;;;;;;4983889;28;20511;-60
2023/12/04 01:13:35;;;;;;;8.67;7.17;;;;;;;;;;4984432;28;20516;-60
2023/12/04 01:16:03;;;;;;;10.27;7.33;;;;;;;;;;4984298;28;20475;-60
2023/12/04 01:18:31;;;;;;;10.53;6.97;;;;;;;;;;4984746;28;20463;-60
2023/12/04 01:21:00;;;;;;;10.23;6.73;;;;;;;;;;4984417;28;20460;-60
2023/12/04 01:23:30;;;;;;;11.57;7.17;;;;;;;;;;4984411;28;20480;-60
2023/12/04 01:25:58;;;;;;;9.13;6.53;;;;;;;;;;4984088;28;20904;-60
2023/12/04 01:28:26;;;;;;;12.70;6.47;;;;;;;;;;4984407;28;20535;-60
2023/12/04 01:30:55;;;;;;;10.97;6.77;;;;;;;;;;4984376;28;20492;-60
2023/12/04 01:33:23;;;;;;;11.73;7.57;;;;;;;;;;4984143;28;21038;-60
2023/12/04 01:35:52;;;;;;;9.87;6.60;;;;;;;;;;4984175;28;20490;-60
2023/12/04 01:38:20;;;;;;;11.27;6.13;;;;;;;;;;4981092;28;20860;-60
2023/12/04 01:40:50;;;;;;;7.10;5.73;;;;;;;;;;4989294;28;20543;-60
2023/12/04 01:43:19;;;;;;;7.57;6.37;;;;;;;;;;4981854;28;20558;-60
2023/12/04 01:45:47;;;;;;;6.73;5.37;;;;;;;;;;4984583;28;20520;-60
2023/12/04 01:48:16;;;;;;;7.10;6.00;;;;;;;;;;4984068;28;20449;-60
2023/12/04 01:50:44;;;;;;;8.93;6.33;;;;;;;;;;4983509;28;20461;-60
2023/12/04 01:53:13;;;;;;;8.33;5.83;;;;;;;;;;4980978;28;20504;-60
2023/12/04 01:55:42;;;;;;;9.63;5.60;;;;;;;;;;4980802;28;20556;-60
2023/12/04 01:58:12;;;;;;;7.30;5.10;;;;;;;;;;4983570;28;20445;-60
2023/12/04 02:00:40;;;;;;;11.43;6.13;;;;;;;;;;4981094;28;20907;-60
2023/12/04 02:03:09;;;;;;;10.93;5.97;;;;;;;;;;4980717;28;21011;-60
2023/12/04 02:05:38;;;;;;;9.97;5.90;;;;;;;;;;4980936;28;20445;-60
2023/12/04 02:08:06;;;;;;;9.43;5.90;;;;;;;;;;4980744;28;20513;-60
2023/12/04 02:10:35;;;;;;;7.43;5.70;;;;;;;;;;4980202;28;20472;-60
2023/12/04 02:13:04;;;;;;;6.43;5.63;;;;;;;;;;4979439;28;20445;-61
2023/12/04 02:15:33;;;;;;;5.43;4.80;;;;;;;;;;4980485;28;20496;-60
2023/12/04 02:18:03;;;;;;;6.57;4.20;;;;;;;;;;4980781;28;20804;-60
2023/12/04 02:20:34;;;;;;;6.43;3.73;;;;;;;;;;4980494;28;20501;-60
2023/12/04 02:23:02;;;;;;;6.93;4.17;;;;;;;;;;4975616;28;20453;-60
2023/12/04 02:25:33;;;;;;;6.23;4.40;;;;;;;;;;4980113;28;21003;-60
2023/12/04 02:28:06;;;;;;;5.97;4.77;;;;;;;;;;4980530;28;20535;-60
2023/12/04 02:30:36;;;;;;;6.60;4.47;;;;;;;;;;4980864;28;20516;-60
2023/12/04 02:33:06;;;;;;;5.17;4.47;;;;;;;;;;4980513;28;20480;-60
2023/12/04 02:35:36;;;;;;;5.63;4.00;;;;;;;;;;4980470;28;20485;-60
2023/12/04 02:38:04;;;;;;;6.07;4.47;;;;;;;;;;4980051;28;20540;-60
2023/12/04 02:40:35;;;;;;;8.37;4.40;;;;;;;;;;4987856;28;20794;-60
2023/12/04 02:43:03;;;;;;;5.93;4.60;;;;;;;;;;4982396;28;20456;-60
2023/12/04 02:45:32;;;;;;;6.10;4.47;;;;;;;;;;4980267;28;20984;-60
2023/12/04 02:48:01;;;;;;;5.17;3.80;;;;;;;;;;4979422;28;20448;-61
2023/12/04 02:50:29;;;;;;;5.63;4.70;;;;;;;;;;4980348;28;20503;-61
2023/12/04 02:52:58;;;;;;;4.97;4.23;;;;;;;;;;4980028;28;20456;-60
2023/12/04 02:55:27;;;;;;;6.03;3.67;;;;;;;;;;4980199;28;20481;-60
2023/12/04 02:57:56;;;;;;;4.47;3.67;;;;;;;;;;4981754;28;20449;-61
2023/12/04 03:00:25;;;;;;;4.83;3.53;;;;;;;;;;4980033;28;20476;-61
2023/12/04 03:02:54;;;;;;;5.40;4.07;;;;;;;;;;4979697;28;20449;-61
2023/12/04 03:05:22;;;;;;;4.20;3.80;;;;;;;;;;4972822;28;20512;-61
2023/12/04 03:07:53;;;;;;;5.57;4.10;;;;;;;;;;4980228;28;20502;-61
2023/12/04 03:10:21;;;;;;;4.07;3.60;;;;;;;;;;4976933;28;20449;-61
2023/12/04 03:12:50;;;;;;;4.90;3.80;;;;;;;;;;4979567;28;20445;-60
2023/12/04 03:15:20;;;;;;;6.70;4.00;;;;;;;;;;4979690;28;20506;-61
2023/12/04 03:17:48;;;;;;;6.93;4.17;;;;;;;;;;4979822;28;20524;-60
2023/12/04 03:20:16;;;;;;;6.97;3.80;;;;;;;;;;4979592;28;20480;-60
2023/12/04 03:22:43;;;;;;;6.53;4.17;;;;;;;;;;4974516;28;20544;-61
2023/12/04 03:25:12;;;;;;;8.70;4.47;;;;;;;;;;4977908;28;20552;-60
2023/12/04 03:27:40;;;;;;;5.33;3.87;;;;;;;;;;4979245;28;20449;-61
2023/12/04 03:30:09;;;;;;;4.77;3.73;;;;;;;;;;4979591;28;20457;-62
2023/12/04 03:32:39;;;;;;;5.20;3.70;;;;;;;;;;4978539;28;20529;-60
2023/12/04 03:35:08;;;;;;;7.67;4.10;;;;;;;;;;4979256;28;20488;-60
2023/12/04 03:37:37;;;;;;;9.30;5.17;;;;;;;;;;4979128;28;20835;-60
2023/12/04 03:40:06;;;;;;;6.80;4.20;;;;;;;;;;4983333;28;20547;-60
2023/12/04 03:42:35;;;;;;;5.53;4.30;;;;;;;;;;4976248;28;20449;-60
2023/12/04 03:45:03;;;;;;;3.27;2.87;;;;;;;;;;4978931;28;20448;-60
2023/12/04 03:47:31;;;;;;;4.93;3.37;;;;;;;;;;4978094;28;20469;-60
2023/12/04 03:50:01;;;;;;;6.87;3.30;;;;;;;;;;4978676;28;20445;-60
2023/12/04 03:52:30;;;;;;;5.07;3.23;;;;;;;;;;4978912;28;20500;-60
2023/12/04 03:54:58;;;;;;;2.40;2.20;;;;;;;;;;4971479;28;20449;-60
2023/12/04 03:57:26;;;;;;;5.00;2.40;;;;;;;;;;4980554;28;20498;-60
2023/12/04 03:59:55;;;;;;;6.77;2.77;;;;;;;;;;4978556;28;20585;-60
2023/12/04 04:02:24;;;;;;;3.87;2.70;;;;;;;;;;4975735;28;20464;-60
2023/12/04 04:04:53;;;;;;;5.10;2.87;;;;;;;;;;4979032;28;20449;-60
2023/12/04 04:07:22;;;;;;;5.07;3.27;;;;;;;;;;4975841;28;21125;-60
2023/12/04 04:13:20;;;;;;;5.03;2.40;;;;;;;;;;4937209;28;20523;-60
2023/12/04 04:15:49;;;;;;;3.33;2.20;;;;;;;;;;4978035;28;20524;-60
2023/12/04 04:18:35;;;;;;;2.57;1.90;;;;;;;;;;4978624;28;20500;-60
2023/12/04 04:21:04;;;;;;;8.17;2.43;;;;;;;;;;4973725;28;20465;-60
2023/12/04 04:23:35;;;;;;;4.47;2.50;;;;;;;;;;4978917;28;20457;-60
2023/12/04 04:26:03;;;;;;;2.37;2.17;;;;;;;;;;4978495;28;20524;-60
2023/12/04 04:28:32;;;;;;;2.33;1.90;;;;;;;;;;4978565;28;20480;-60
2023/12/04 04:31:00;;;;;;;5.13;2.17;;;;;;;;;;4978384;28;20468;-60
2023/12/04 04:33:29;;;;;;;4.30;2.40;;;;;;;;;;4978422;28;20462;-60
2023/12/04 04:35:59;;;;;;;2.33;2.10;;;;;;;;;;4978403;28;20480;-60
2023/12/04 04:38:28;;;;;;;2.53;2.33;;;;;;;;;;4978540;28;20441;-60
2023/12/04 04:40:57;;;;;;;4.53;2.53;;;;;;;;;;4985192;28;20984;-60
2023/12/04 04:43:26;;;;;;;2.33;2.10;;;;;;;;;;4978207;28;20443;-60
2023/12/04 04:45:54;;;;;;;2.17;1.97;;;;;;;;;;4978512;28;20441;-60
2023/12/04 04:48:23;;;;;;;3.07;2.20;;;;;;;;;;4978519;28;20445;-60
2023/12/04 04:50:51;;;;;;;2.73;1.90;;;;;;;;;;4978172;28;20497;-60
2023/12/04 04:53:20;;;;;;;2.50;2.27;;;;;;;;;;4978559;28;20445;-60
2023/12/04 04:55:52;;;;;;;2.37;2.17;;;;;;;;;;4977952;28;20925;-60
2023/12/04 04:58:22;;;;;;;2.17;1.87;;;;;;;;;;4980556;28;20473;-60
2023/12/04 05:00:51;;;;;;;3.17;2.23;;;;;;;;;;4978234;28;20493;-59
2023/12/04 05:03:19;;;;;;;2.83;1.97;;;;;;;;;;4978225;28;20433;-60
2023/12/04 05:05:49;;;;;;;3.37;2.60;;;;;;;;;;4973726;28;20449;-60
2023/12/04 05:08:17;;;;;;;2.63;2.20;;;;;;;;;;4978142;28;20449;-60
2023/12/04 05:10:46;;;;;;;2.73;2.47;;;;;;;;;;4977135;28;20465;-61
2023/12/04 05:13:18;;;;;;;2.33;2.13;;;;;;;;;;4978202;28;20540;-60
2023/12/04 05:15:48;;;;;;;5.70;2.43;;;;;;;;;;4980673;28;21014;-59
2023/12/04 05:18:17;;;;;;;3.53;2.60;;;;;;;;;;4977696;28;20445;-59
2023/12/04 05:20:46;;;;;;;5.23;2.67;;;;;;;;;;4978319;28;20473;-60
2023/12/04 05:23:15;;;;;;;3.53;2.37;;;;;;;;;;4975247;28;20459;-59
2023/12/04 05:25:44;;;;;;;1.90;1.73;;;;;;;;;;4976767;28;20963;-60
2023/12/04 05:28:17;;;;;;;3.13;2.13;;;;;;;;;;4975372;28;20444;-60
2023/12/04 05:30:46;;;;;;;3.43;2.53;;;;;;;;;;4981351;28;20460;-59
2023/12/04 05:33:16;;;;;;;2.77;2.30;;;;;;;;;;4983195;28;20484;-60
2023/12/04 05:35:44;;;;;;;4.43;2.40;;;;;;;;;;4976430;28;20827;-60
2023/12/04 05:38:13;;;;;;;4.40;2.50;;;;;;;;;;4981933;28;20532;-60
2023/12/04 05:40:41;;;;;;;3.73;2.57;;;;;;;;;;4981321;28;20465;-60
2023/12/04 05:43:09;;;;;;;2.93;2.00;;;;;;;;;;4981547;28;20473;-61
2023/12/04 05:45:38;;;;;;;2.47;2.13;;;;;;;;;;4981067;28;20445;-60
2023/12/04 05:48:07;;;;;;;2.10;1.87;;;;;;;;;;4980605;28;20825;-60
2023/12/04 05:50:38;;;;;;;2.23;2.00;;;;;;;;;;4981131;28;20461;-60
2023/12/04 05:53:07;;;;;;;3.93;2.20;;;;;;;;;;4981240;28;20537;-60
2023/12/04 05:55:35;;;;;;;3.93;2.30;;;;;;;;;;4980879;28;20441;-61
2023/12/04 05:58:04;;;;;;;3.87;2.17;;;;;;;;;;4982330;28;20512;-60
2023/12/04 06:00:33;;;;;;;3.30;2.40;;;;;;;;;;4981041;28;20460;-60
2023/12/04 06:03:01;;;;;;;2.63;2.00;;;;;;;;;;4981101;28;20456;-61
2023/12/04 06:05:30;;;;;;;2.30;2.10;;;;;;;;;;4981163;28;20526;-60
2023/12/04 06:08:00;;;;;;;2.87;2.33;;;;;;;;;;4981250;28;20452;-61
2023/12/04 06:10:29;;;;;;;3.93;2.13;;;;;;;;;;4980214;28;20584;-60
2023/12/04 06:12:57;;;;;;;3.80;2.20;;;;;;;;;;4980943;28;20976;-60
2023/12/04 06:15:25;;;;;;;4.03;2.27;;;;;;;;;;4980575;28;20632;-60
2023/12/04 06:17:54;;;;;;;3.73;2.57;;;;;;;;;;4981011;28;20226;-60
2023/12/04 06:20:22;;;;;;;5.70;2.27;;;;;;;;;;4980591;28;20475;-60
2023/12/04 06:23:09;;;;;;;2.70;2.53;;;;;;;;;;4978836;28;20486;-60
2023/12/04 06:25:39;;;;;;;4.47;2.50;;;;;;;;;;4976904;28;20529;-60
2023/12/04 06:28:09;;;;;;;3.07;1.80;;;;;;;;;;4978826;28;20202;-61
2023/12/04 06:30:37;;;;;;;2.17;1.70;;;;;;;;;;4980108;28;20304;-60
2023/12/04 06:33:06;;;;;;;3.63;1.70;;;;;;;;;;4980645;28;20441;-60
2023/12/04 06:35:35;;;;;;;1.83;1.70;;;;;;;;;;4979491;28;20205;-60
2023/12/04 06:38:08;;;;;;;2.70;1.60;;;;;;;;;;4979677;28;20242;-60
2023/12/04 06:40:36;;;;;;;1.60;1.50;;;;;;;;;;4975223;28;20233;-60
2023/12/04 06:43:07;;;;;;;2.03;1.60;;;;;;;;;;4980042;28;20651;-60
2023/12/04 06:45:36;;;;;;;4.63;1.60;;;;;;;;;;4980260;28;20639;-60
2023/12/04 06:48:04;;;;;;;1.83;1.30;;;;;;;;;;4979926;28;20202;-60
2023/12/04 06:50:33;;;;;;;2.20;1.73;;;;;;;;;;4979804;28;20226;-60
2023/12/04 06:53:02;;;;;;;3.03;1.30;;;;;;;;;;4981967;28;20210;-60
2023/12/04 06:55:30;;;;;;;3.80;2.80;;;;;;;;;;4979806;28;20616;-60
2023/12/04 06:57:58;;;;;;;5.07;2.70;;;;;;;;;;4980827;28;20232;-60
2023/12/04 07:00:29;;;;;;;4.20;2.07;;;;;;;;;;4979866;28;20233;-60
2023/12/04 07:02:58;;;;;;;2.47;1.73;;;;;;;;;;4980069;28;20202;-60
2023/12/04 07:05:27;;;;;;;3.80;2.47;;;;;;;;;;4979752;28;20288;-60
2023/12/04 07:08:05;;;;;;;2.40;2.20;;;;;;;;;;4980071;28;20227;-60
2023/12/04 07:10:35;;;;;;;1.87;1.67;;;;;;;;;;4979336;28;20241;-60
2023/12/04 07:13:04;;;;;;;4.37;2.10;;;;;;;;;;4979446;28;20201;-60
2023/12/04 07:15:34;;;;;;;3.00;2.40;;;;;;;;;;4979719;28;20232;-60
2023/12/04 07:18:02;;;;;;;2.87;2.30;;;;;;;;;;4979541;28;20762;-60
2023/12/04 07:20:31;;;;;;;3.63;2.90;;;;;;;;;;4979754;28;20226;-60
2023/12/04 07:23:00;;;;;;;2.33;2.13;;;;;;;;;;4979608;28;20233;-60
2023/12/04 07:25:28;;;;;;;2.47;2.27;;;;;;;;;;4976343;28;20214;-60
2023/12/04 07:28:06;;;;;;;2.07;1.87;;;;;;;;;;4977692;28;20261;-60
2023/12/04 07:30:37;;;;;;;5.77;3.80;;;;;;;;;;4978377;28;20688;-61
2023/12/04 07:33:05;;;;;;;5.53;3.20;;;;;;;;;;4978875;28;20546;-60
2023/12/04 07:35:37;;;;;;;8.03;4.50;;;;;;;;;;4976040;28;20213;-60
2023/12/04 07:38:05;;;;;;;3.23;2.50;;;;;;;;;;4978148;28;20268;-60
2023/12/04 07:40:40;;;;;;;5.70;3.63;;;;;;;;;;4985361;28;20228;-60
2023/12/04 07:43:12;;;;;;;5.60;2.67;;;;;;;;;;4974833;28;20205;-61
2023/12/04 07:45:43;;;;;;;2.97;1.90;;;;;;;;;;4978223;28;20205;-61
2023/12/04 07:58:47;;;;;;;3.37;1.40;;;;;;;;;;4885576;29;20258;-60
2023/12/04 08:01:20;;;;;;;2.23;2.03;;;;;;;;;;4911889;29;20741;-61
2023/12/04 08:03:55;;;;;;;4.60;1.97;;;;;;;;;;4912709;29;20258;-61
2023/12/04 08:06:26;;;;;;;2.83;1.77;;;;;;;;;;4917900;29;20236;-61
2023/12/04 08:09:37;;;;;;;4.83;2.50;;;;;;;;;;4914766;29;20199;-61
2023/12/04 08:12:27;;;;;;;5.93;2.10;;;;;;;;;;4859326;29;20641;-61
2023/12/04 08:15:07;;;;;;;2.17;1.87;;;;;;;;;;4869161;29;20298;-61
2023/12/04 08:17:57;;;;;;;5.50;1.70;;;;;;;;;;4915994;29;20232;-62
2023/12/04 08:20:40;;;;;;;1.90;1.77;;;;;;;;;;4911443;29;20239;-62
2023/12/04 08:23:19;;;;;;;4.17;2.33;;;;;;;;;;4910550;29;20233;-66
2023/12/04 08:26:02;;;;;;;2.87;1.60;;;;;;;;;;4894842;29;20219;-66
2023/12/04 08:28:36;;;;;;;2.40;1.40;;;;;;;;;;4957316;28;20225;-63
2023/12/04 08:31:08;;;;;;;1.93;1.70;;;;;;;;;;4971916;28;20697;-61
2023/12/04 08:33:38;;;;;;;1.23;1.20;;;;;;;;;;4977436;28;20214;-60
2023/12/04 08:36:07;;;;;;;2.47;1.40;;;;;;;;;;4978017;28;20640;-61
2023/12/04 08:38:36;;;;;;;2.23;1.30;;;;;;;;;;4974255;28;20225;-61
2023/12/04 08:41:04;;;;;;;1.00;1.00;;;;;;;;;;4985390;28;20767;-60
2023/12/04 08:43:33;;;;;;;1.70;1.40;;;;;;;;;;4978202;28;20679;-61
2023/12/04 08:46:01;;;;;;;2.37;1.20;;;;;;;;;;4976573;28;20288;-60
2023/12/04 08:48:29;;;;;;;1.67;0.97;;;;;;;;;;4977923;28;20611;-59
2023/12/04 08:50:59;;;;;;;2.50;1.17;;;;;;;;;;4978259;28;20230;-60
2023/12/04 08:53:30;;;;;;;1.13;1.10;;;;;;;;;;4977980;28;20205;-61
2023/12/04 08:56:00;;;;;;;1.47;1.20;;;;;;;;;;4973098;28;20292;-61
2023/12/04 08:58:29;;;;;;;4.67;1.60;;;;;;;;;;4975994;28;20253;-60
2023/12/04 09:00:58;;;;;;;2.80;2.27;;;;;;;;;;4974607;28;20217;-60
2023/12/04 09:03:31;;;;;;;1.70;1.60;;;;;;;;;;4980305;28;20201;-60
2023/12/04 09:06:15;;;;;;;1.73;1.40;;;;;;;;;;4980917;28;20205;-59
2023/12/04 09:08:44;;;;;;;3.37;1.47;;;;;;;;;;4977390;28;20427;-61
2023/12/04 09:11:24;;;;;;;4.60;1.47;;;;;;;;;;4982135;28;20225;-61
2023/12/04 09:13:53;;;;;;;2.13;1.10;;;;;;;;;;4977739;28;20209;-60
2023/12/04 09:16:21;;;;;;;2.27;1.53;;;;;;;;;;4982940;28;20544;-59
2023/12/04 09:18:50;;;;;;;5.73;1.40;;;;;;;;;;4981124;28;20249;-58
2023/12/04 09:24:47;;;;;;;3.00;1.20;;;;;;;;;;4974031;28;20217;-58
2023/12/04 09:27:20;;;;;;;1.90;0.90;;;;;;;;;;4981728;28;20206;-59
2023/12/04 09:30:00;;;;;;;2.00;1.23;;;;;;;;;;4979359;28;20201;-59
2023/12/04 09:38:45;;;;;;;2.20;1.27;;;;;;;;;;4979548;28;20232;-59
2023/12/04 09:41:16;;;;;;;1.20;1.10;;;;;;;;;;4980648;28;20316;-59
2023/12/04 09:43:45;;;;;;;1.67;1.30;;;;;;;;;;4979548;28;20205;-60
2023/12/04 09:49:14;;;;;;;2.37;1.33;;;;;;;;;;4978746;28;20696;-59
2023/12/04 09:51:46;;;;;;;2.03;1.40;;;;;;;;;;4974096;28;20292;-58
2023/12/04 09:54:17;;;;;;;1.90;1.10;;;;;;;;;;4978050;28;20252;-59
2023/12/04 09:56:50;;;;;;;1.17;1.13;;;;;;;;;;4981045;28;20289;-59
2023/12/04 09:59:18;;;;;;;1.10;1.03;;;;;;;;;;4983033;28;20226;-59
2023/12/04 10:01:48;;;;;;;1.23;0.93;;;;;;;;;;4979007;28;20701;-59
2023/12/04 10:04:17;;;;;;;3.63;1.40;;;;;;;;;;4980775;28;20269;-59
2023/12/04 10:06:46;;;;;;;1.90;1.33;;;;;;;;;;4974317;28;20237;-59
2023/12/04 10:09:15;;;;;;;1.23;1.13;;;;;;;;;;4979943;28;20241;-59
2023/12/04 10:11:46;;;;;;;3.13;1.17;;;;;;;;;;4980480;28;20233;-59
2023/12/04 10:14:25;;;;;;;3.23;1.40;;;;;;;;;;4980076;28;20202;-60
2023/12/04 10:16:55;;;;;;;2.80;1.00;;;;;;;;;;4979993;28;20229;-59
2023/12/04 10:19:31;;;;;;;1.53;1.07;;;;;;;;;;4974659;28;20227;-60
2023/12/04 10:22:00;;;;;;;2.50;1.20;;;;;;;;;;4979644;28;20696;-60
2023/12/04 10:24:30;;;;;;;1.10;1.10;;;;;;;;;;4980062;28;20213;-60
2023/12/04 10:27:11;;;;;;;2.83;1.27;;;;;;;;;;4976185;28;20669;-61
2023/12/04 10:29:48;;;;;;;2.73;1.20;;;;;;;;;;4984606;28;20212;-59
2023/12/04 10:32:21;;;;;;;2.53;1.40;;;;;;;;;;4981144;28;20237;-62
2023/12/04 10:34:53;;;;;;;4.97;1.10;;;;;;;;;;4976809;28;20205;-61
2023/12/04 10:37:22;;;;;;;3.23;1.30;;;;;;;;;;4976644;28;20236;-63
2023/12/04 10:39:53;;;;;;;3.37;1.37;;;;;;;;;;4978332;28;20232;-61
2023/12/04 10:42:25;;;;;;;2.37;1.17;;;;;;;;;;4973033;28;20309;-61
2023/12/04 10:44:57;;;;;;;1.53;1.23;;;;;;;;;;4980080;28;20263;-60
2023/12/04 10:47:26;;;;;;;4.37;1.43;;;;;;;;;;4980321;28;20252;-61
2023/12/04 10:49:56;;;;;;;2.33;1.37;;;;;;;;;;4979323;28;20786;-60
2023/12/04 10:52:24;;;;;;;1.57;1.20;;;;;;;;;;4980357;28;20226;-60
2023/12/04 10:54:53;;;;;;;1.87;1.60;;;;;;;;;;4979816;28;20260;-60
2023/12/04 10:57:24;;;;;;;1.77;1.33;;;;;;;;;;4980841;28;20285;-60
2023/12/04 10:59:57;;;;;;;3.33;1.03;;;;;;;;;;4979933;28;20779;-60
2023/12/04 11:02:30;;;;;;;1.43;1.00;;;;;;;;;;4978459;28;20724;-60
2023/12/04 11:05:13;;;;;;;4.63;2.73;;;;;;;;;;4979346;28;20202;-60
2023/12/04 11:07:48;;;;;;;3.90;2.37;;;;;;;;;;4979256;28;20233;-60
2023/12/04 11:10:41;;;;;;;1.53;1.20;;;;;;;;;;4979285;28;20229;-60
2023/12/04 11:13:19;;;;;;;1.30;1.30;;;;;;;;;;4977999;28;20209;-59
2023/12/04 11:15:50;;;;;;;1.53;1.20;;;;;;;;;;4978184;28;20217;-59
2023/12/04 11:18:22;;;;;;;2.30;1.13;;;;;;;;;;4978990;28;20213;-60
2023/12/04 11:20:52;;;;;;;3.77;1.27;;;;;;;;;;4980114;28;20270;-59
2023/12/04 11:23:21;;;;;;;2.53;1.20;;;;;;;;;;4973778;28;20201;-60
2023/12/04 11:25:49;;;;;;;2.77;1.77;;;;;;;;;;4979123;28;20297;-60
2023/12/04 11:28:17;;;;;;;2.33;1.50;;;;;;;;;;4970514;28;20208;-60
2023/12/04 11:30:46;;;;;;;2.30;1.67;;;;;;;;;;4979324;28;20221;-60
2023/12/04 11:33:14;;;;;;;1.50;1.40;;;;;;;;;;4979542;28;20300;-60
2023/12/04 11:35:45;;;;;;;2.57;1.63;;;;;;;;;;4979459;28;20209;-59
2023/12/04 11:38:15;;;;;;;2.57;1.70;;;;;;;;;;4978898;28;20230;-60
2023/12/04 11:40:43;;;;;;;2.30;2.10;;;;;;;;;;4973420;28;20696;-60
2023/12/04 11:43:25;;;;;;;4.93;2.73;;;;;;;;;;4977714;28;20237;-60
2023/12/04 11:45:54;;;;;;;6.70;4.30;;;;;;;;;;4979534;28;20197;-61
2023/12/04 11:48:26;;;;;;;3.90;2.87;;;;;;;;;;4979109;28;20260;-61
2023/12/04 11:50:58;;;;;;;4.93;3.27;;;;;;;;;;4978498;28;20228;-61
2023/12/04 11:53:27;;;;;;;2.97;1.53;;;;;;;;;;4979177;28;20757;-61
2023/12/04 11:55:56;;;;;;;3.80;2.70;;;;;;;;;;4978494;28;20280;-61
2023/12/04 11:58:25;;;;;;;2.20;1.43;;;;;;;;;;4980788;28;20213;-63
2023/12/04 12:00:55;;;;;;;3.77;2.80;;;;;;;;;;4979110;28;20256;-61
2023/12/04 12:03:26;;;;;;;4.73;1.60;;;;;;;;;;4978929;28;20206;-61
2023/12/04 12:06:00;;;;;;;3.43;2.00;;;;;;;;;;4978574;28;20689;-60
2023/12/04 12:08:30;;;;;;;2.93;1.97;;;;;;;;;;4977374;28;20233;-62
2023/12/04 12:10:59;;;;;;;2.20;1.57;;;;;;;;;;4972940;28;20218;-62
2023/12/04 12:13:28;;;;;;;1.67;1.30;;;;;;;;;;4978948;28;20197;-62
2023/12/04 12:15:58;;;;;;;1.27;1.00;;;;;;;;;;4978215;28;20229;-62
2023/12/04 12:18:30;;;;;;;1.23;1.00;;;;;;;;;;4978094;28;20212;-62
2023/12/04 12:21:00;;;;;;;2.10;0.90;;;;;;;;;;4978570;28;20229;-62
2023/12/04 12:23:29;;;;;;;1.20;1.10;;;;;;;;;;4978326;28;20207;-60
2023/12/04 12:25:57;;;;;;;1.03;0.93;;;;;;;;;;4978118;28;20205;-60
2023/12/04 12:28:26;;;;;;;0.70;0.70;;;;;;;;;;4976439;28;20284;-60
2023/12/04 12:34:24;;;;;;;1.07;0.93;;;;;;;;;;4945807;28;20209;-60
2023/12/04 12:36:54;;;;;;;1.23;0.93;;;;;;;;;;4974282;28;20752;-60
2023/12/04 12:39:23;;;;;;;0.90;0.90;;;;;;;;;;4978031;28;20217;-60
2023/12/04 12:41:52;;;;;;;0.70;0.70;;;;;;;;;;4983769;28;20272;-60
2023/12/04 12:44:22;;;;;;;0.80;0.80;;;;;;;;;;4978089;28;20210;-60
2023/12/04 12:46:53;;;;;;;2.43;1.00;;;;;;;;;;4977750;28;20646;-60
2023/12/04 12:49:22;;;;;;;0.67;0.50;;;;;;;;;;4977960;28;20209;-60
2023/12/04 12:52:08;;;;;;;0.60;0.60;;;;;;;;;;4978224;28;20308;-60
2023/12/04 12:54:38;;;;;;;0.70;0.70;;;;;;;;;;4978020;28;20573;-60
2023/12/04 12:57:08;;;;;;;1.30;0.87;;;;;;;;;;4979072;28;20615;-60
2023/12/04 12:59:37;;;;;;;0.80;0.80;;;;;;;;;;4977839;28;20233;-60
2023/12/04 13:02:53;;;;;;;1.67;0.83;;;;;;;;;;4973174;28;20222;-59
2023/12/04 13:05:22;;;;;;;1.43;0.80;;;;;;;;;;4965220;28;20201;-60
2023/12/04 13:07:57;;;;;;;0.80;0.80;;;;;;;;;;4966429;28;20666;-60
2023/12/04 13:13:37;;;;;;;0.60;0.60;;;;;;;;;;4977797;28;20209;-60
2023/12/04 13:16:10;;;;;;;1.07;0.70;;;;;;;;;;4967138;28;20245;-60
2023/12/04 13:18:40;;;;;;;0.67;0.67;;;;;;;;;;4978185;28;20204;-61
2023/12/04 13:21:11;;;;;;;2.10;0.70;;;;;;;;;;4977094;28;20235;-61
2023/12/04 13:23:43;;;;;;;0.97;0.70;;;;;;;;;;4977811;28;20673;-60
2023/12/04 13:26:16;;;;;;;1.60;0.60;;;;;;;;;;4978323;28;20206;-60
2023/12/04 13:28:45;;;;;;;0.70;0.70;;;;;;;;;;4978118;28;20202;-60
2023/12/04 13:31:14;;;;;;;0.67;0.67;;;;;;;;;;4977856;28;20226;-60
2023/12/04 13:33:46;;;;;;;0.60;0.60;;;;;;;;;;4977703;28;20260;-61
2023/12/04 13:36:18;;;;;;;0.60;0.60;;;;;;;;;;4968830;28;20230;-61
2023/12/04 13:38:53;;;;;;;0.50;0.50;;;;;;;;;;4975103;28;20205;-61
2023/12/04 13:44:15;;;;;;;0.50;0.50;;;;;;;;;;4978159;28;20210;-60
2023/12/04 13:46:47;;;;;;;0.33;0.33;;;;;;;;;;4978029;28;20206;-61
2023/12/04 13:49:19;;;;;;;0.50;0.50;;;;;;;;;;4980314;28;20205;-61
2023/12/04 13:51:49;;;;;;;0.60;0.60;;;;;;;;;;4969686;28;20253;-61
2023/12/04 13:54:26;;;;;;;0.33;0.33;;;;;;;;;;4979994;28;20213;-60
2023/12/04 13:56:58;;;;;;;0.50;0.50;;;;;;;;;;4981181;28;20575;-61
2023/12/04 13:59:29;;;;;;;0.50;0.50;;;;;;;;;;4981121;28;20269;-60
2023/12/04 14:02:00;;;;;;;0.50;0.50;;;;;;;;;;4980930;28;20289;-61
2023/12/04 14:04:30;;;;;;;0.57;0.57;;;;;;;;;;4981105;28;20204;-61
2023/12/04 14:06:59;;;;;;;0.47;0.47;;;;;;;;;;4981103;28;20281;-61
2023/12/04 14:09:32;;;;;;;0.50;0.50;;;;;;;;;;4980653;28;20208;-61
2023/12/04 14:12:01;;;;;;;0.60;0.60;;;;;;;;;;4980335;28;20257;-61
2023/12/04 14:14:29;;;;;;;0.83;0.60;;;;;;;;;;4980426;28;20232;-61
2023/12/04 14:16:57;;;;;;;0.50;0.50;;;;;;;;;;4980945;28;20229;-61
2023/12/04 14:19:27;;;;;;;1.30;0.60;;;;;;;;;;4980391;28;20202;-61
2023/12/04 14:21:56;;;;;;;0.73;0.73;;;;;;;;;;4980328;28;20260;-61
2023/12/04 14:24:58;;;;;;;0.33;0.33;;;;;;;;;;4974112;28;20203;-62
2023/12/04 14:37:00;;;;;;;0.30;0.30;;;;;;;;;;4980340;28;20265;-61
2023/12/04 14:39:59;;;;;;;;;;;;;;;;;;;;;
2023/12/04 14:42:30;;;;;;;0.40;0.40;;;;;;;;;;4968344;28;20713;-60
2023/12/04 14:44:59;;;;;;;2.40;0.70;;;;;;;;;;4978845;28;20288;-61
2023/12/04 14:47:27;;;;;;;2.80;0.50;;;;;;;;;;4978900;28;20205;-60
2023/12/04 14:49:56;;;;;;;0.40;0.40;;;;;;;;;;4979348;28;20252;-60
2023/12/04 14:52:28;;;;;;;0.50;0.50;;;;;;;;;;4988147;28;20244;-61
2023/12/04 14:55:43;;;;;;;0.40;0.40;;;;;;;;;;4979699;28;20209;-60
2023/12/04 14:58:59;;;;;;;2.00;0.40;;;;;;;;;;4975943;28;20234;-63
2023/12/04 15:07:19;;;;;;;0.50;0.50;;;;;;;;;;4979671;28;20640;-63
2023/12/04 15:16:19;;;;;;;0.50;0.50;;;;;;;;;;4969269;28;20573;-63
2023/12/04 15:19:13;;;;;;;0.40;0.40;;;;;;;;;;4976030;28;20252;-63
2023/12/04 15:21:42;;;;;;;0.40;0.40;;;;;;;;;;4973011;28;20237;-63
2023/12/04 15:24:10;;;;;;;0.40;0.40;;;;;;;;;;4979364;28;20214;-63
2023/12/04 15:26:43;;;;;;;0.53;0.53;;;;;;;;;;4979275;28;20600;-63
2023/12/04 15:29:30;;;;;;;1.40;0.60;;;;;;;;;;4979633;28;20245;-63
2023/12/04 15:32:04;;;;;;;0.40;0.40;;;;;;;;;;4977257;28;20218;-63
2023/12/04 15:34:32;;;;;;;0.43;0.43;;;;;;;;;;4979588;28;20205;-63
2023/12/04 15:37:00;;;;;;;0.60;0.60;;;;;;;;;;4979095;28;20241;-63
2023/12/04 15:39:28;;;;;;;0.37;0.37;;;;;;;;;;4979324;28;20240;-63
2023/12/04 15:41:56;;;;;;;0.40;0.40;;;;;;;;;;4988443;28;20685;-63
2023/12/04 15:44:23;;;;;;;0.40;0.40;;;;;;;;;;4979103;28;20224;-63
2023/12/04 15:46:52;;;;;;;1.03;0.50;;;;;;;;;;4979572;28;20296;-63
2023/12/04 15:49:21;;;;;;;0.40;0.40;;;;;;;;;;4978703;28;20244;-63
2023/12/04 15:51:50;;;;;;;0.50;0.50;;;;;;;;;;4979009;28;20253;-63
2023/12/04 15:54:17;;;;;;;1.00;0.60;;;;;;;;;;4979032;28;20209;-63
2023/12/04 15:56:45;;;;;;;1.03;0.60;;;;;;;;;;4979154;28;20210;-63
2023/12/04 15:59:15;;;;;;;0.50;0.50;;;;;;;;;;4981576;28;20233;-63
2023/12/04 16:01:44;;;;;;;0.70;0.70;;;;;;;;;;4979214;28;20636;-63
2023/12/04 16:04:12;;;;;;;1.13;0.60;;;;;;;;;;4979250;28;20205;-63